createdAt,value
2022-08-30T00:01:21.415Z,4.38
2022-08-30T00:03:48.767Z,4.80
2022-08-30T00:06:19.612Z,4.50
2022-08-30T00:08:48.975Z,4.65
2022-08-30T00:11:21.389Z,4.80
2022-08-30T00:13:51.578Z,5.15
2022-08-30T00:16:22.122Z,4.77
2022-08-30T00:18:49.247Z,4.72
2022-08-30T00:21:16.631Z,4.45
2022-08-30T00:23:43.600Z,5.20
2022-08-30T00:26:10.525Z,5.07
2022-08-30T00:28:37.823Z,4.83
2022-08-30T00:31:06.238Z,4.82
2022-08-30T00:33:33.646Z,4.82
2022-08-30T00:36:01.438Z,5.05
2022-08-30T00:38:28.829Z,4.80
2022-08-30T00:40:56.281Z,4.57
2022-08-30T00:43:28.138Z,5.25
2022-08-30T00:45:55.214Z,5.30
2022-08-30T00:48:22.948Z,5.13
2022-08-30T00:50:59.592Z,5.65
2022-08-30T00:53:34.712Z,5.30
2022-08-30T00:56:03.039Z,5.07
2022-08-30T00:58:36.672Z,5.60
2022-08-30T01:01:06.345Z,6.13
2022-08-30T01:03:34.602Z,6.28
2022-08-30T01:06:02.980Z,5.80
2022-08-30T01:08:30.000Z,6.30
2022-08-30T01:10:58.317Z,6.68
2022-08-30T01:13:27.507Z,5.93
2022-08-30T01:15:55.765Z,5.97
2022-08-30T01:18:23.928Z,6.20
2022-08-30T01:21:10.259Z,6.07
2022-08-30T01:23:43.037Z,6.90
2022-08-30T01:26:11.931Z,6.03
2022-08-30T01:28:40.750Z,5.78
2022-08-30T01:31:08.552Z,6.10
2022-08-30T01:33:38.344Z,6.30
2022-08-30T01:36:11.279Z,6.57
2022-08-30T01:38:49.156Z,6.10
2022-08-30T01:41:29.071Z,6.45
2022-08-30T01:44:01.568Z,6.93
2022-08-30T01:46:36.020Z,6.90
2022-08-30T01:49:07.472Z,7.10
2022-08-30T01:51:35.332Z,6.60
2022-08-30T01:54:02.508Z,7.93
2022-08-30T01:56:30.428Z,6.20
2022-08-30T01:59:02.660Z,6.50
2022-08-30T02:01:33.590Z,7.32
2022-08-30T02:04:01.023Z,7.13
2022-08-30T02:06:28.104Z,7.30
2022-08-30T02:08:55.227Z,8.13
2022-08-30T02:11:22.571Z,7.22
2022-08-30T02:13:49.596Z,7.00
2022-08-30T02:16:22.822Z,7.78
2022-08-30T02:18:52.733Z,7.40
2022-08-30T02:21:20.993Z,7.43
2022-08-30T02:23:48.124Z,8.05
2022-08-30T02:26:15.900Z,9.75
2022-08-30T02:28:50.254Z,8.30
2022-08-30T02:31:20.742Z,8.95
2022-08-30T02:33:50.698Z,7.53
2022-08-30T02:36:18.949Z,7.55
2022-08-30T02:38:46.231Z,7.70
2022-08-30T02:41:13.757Z,7.97
2022-08-30T02:43:40.744Z,8.65
2022-08-30T02:46:07.888Z,7.57
2022-08-30T02:48:34.882Z,9.50
2022-08-30T02:51:09.333Z,9.40
2022-08-30T02:53:38.697Z,9.52
2022-08-30T02:56:05.857Z,8.73
2022-08-30T02:58:32.824Z,8.57
2022-08-30T03:01:00.198Z,9.15
2022-08-30T03:03:27.214Z,9.00
2022-08-30T03:05:54.365Z,9.07
2022-08-30T03:08:22.092Z,9.55
2022-08-30T03:10:49.039Z,9.47
2022-08-30T03:13:16.193Z,9.45
2022-08-30T03:15:43.487Z,9.48
2022-08-30T03:18:10.520Z,9.38
2022-08-30T03:20:37.434Z,10.20
2022-08-30T03:23:04.789Z,9.50
2022-08-30T03:25:31.892Z,9.52
2022-08-30T03:27:58.864Z,9.85
2022-08-30T03:30:26.708Z,9.38
2022-08-30T03:32:53.931Z,9.48
2022-08-30T03:35:20.971Z,10.00
2022-08-30T03:37:49.079Z,11.43
2022-08-30T03:40:24.639Z,10.23
2022-08-30T03:42:53.112Z,10.48
2022-08-30T03:45:20.991Z,8.98
2022-08-30T03:47:47.955Z,9.60
2022-08-30T03:50:16.152Z,9.95
2022-08-30T03:52:45.615Z,9.95
2022-08-30T03:55:13.086Z,10.02
2022-08-30T03:57:43.417Z,10.63
2022-08-30T04:00:12.940Z,9.17
2022-08-30T04:02:41.680Z,9.90
2022-08-30T04:05:10.919Z,10.75
2022-08-30T04:07:38.312Z,9.90
2022-08-30T04:10:08.526Z,9.63
2022-08-30T04:12:37.934Z,10.80
2022-08-30T04:15:06.235Z,11.02
2022-08-30T04:17:33.124Z,10.35
2022-08-30T04:20:00.056Z,11.32
2022-08-30T04:22:27.053Z,10.70
2022-08-30T04:24:54.073Z,11.00
2022-08-30T04:27:21.053Z,9.38
2022-08-30T04:29:48.316Z,10.50
2022-08-30T04:32:16.647Z,10.00
2022-08-30T04:34:44.271Z,10.90
2022-08-30T04:37:11.425Z,10.77
2022-08-30T04:39:38.779Z,10.18
2022-08-30T04:42:06.852Z,10.70
2022-08-30T04:44:33.820Z,10.50
2022-08-30T04:47:00.743Z,10.18
2022-08-30T04:49:27.648Z,11.10
2022-08-30T04:51:55.708Z,10.73
2022-08-30T04:54:22.744Z,10.98
2022-08-30T04:56:49.712Z,10.13
2022-08-30T04:59:16.756Z,10.35
2022-08-30T05:01:45.213Z,9.97
2022-08-30T05:04:13.588Z,10.63
2022-08-30T05:06:40.865Z,11.40
2022-08-30T05:09:07.866Z,11.32
2022-08-30T05:11:34.827Z,11.25
2022-08-30T05:14:01.897Z,11.13
2022-08-30T05:16:28.893Z,10.52
2022-08-30T05:18:56.138Z,12.10
2022-08-30T05:21:26.476Z,11.00
2022-08-30T05:23:56.569Z,11.77
2022-08-30T05:26:31.263Z,10.80
2022-08-30T05:28:58.495Z,10.80
2022-08-30T05:31:34.670Z,10.88
2022-08-30T05:34:02.676Z,11.20
2022-08-30T05:36:35.043Z,10.85
2022-08-30T05:39:01.976Z,10.80
2022-08-30T05:41:33.249Z,10.32
2022-08-30T05:44:02.715Z,10.43
2022-08-30T05:49:07.741Z,10.80
2022-08-30T05:51:43.350Z,10.60
2022-08-30T05:54:13.533Z,11.35
2022-08-30T05:56:42.963Z,11.25
2022-08-30T05:59:10.007Z,9.90
2022-08-30T06:01:43.971Z,10.07
2022-08-30T06:04:13.595Z,9.70
2022-08-30T06:06:43.419Z,9.98
2022-08-30T06:09:13.332Z,10.02
2022-08-30T06:11:40.362Z,10.50
2022-08-30T06:14:07.517Z,8.80
2022-08-30T06:16:38.694Z,9.77
2022-08-30T06:19:08.384Z,9.32
2022-08-30T06:21:36.971Z,8.88
2022-08-30T06:24:07.144Z,9.00
2022-08-30T06:26:42.672Z,8.50
2022-08-30T06:29:14.106Z,8.63
2022-08-30T06:31:41.445Z,8.25
2022-08-30T06:34:09.053Z,8.27
2022-08-30T06:36:36.611Z,7.43
2022-08-30T06:39:04.144Z,7.78
2022-08-30T06:41:34.291Z,7.57
2022-08-30T06:44:05.069Z,7.18
2022-08-30T06:46:36.879Z,6.50
2022-08-30T06:49:05.738Z,6.13
2022-08-30T06:51:37.100Z,6.32
2022-08-30T06:54:06.348Z,5.47
2022-08-30T06:56:40.309Z,5.47
2022-08-30T06:59:09.796Z,5.30
2022-08-30T07:01:36.772Z,4.63
2022-08-30T07:04:04.668Z,4.30
2022-08-30T07:06:33.265Z,4.20
2022-08-30T07:09:00.323Z,3.50
2022-08-30T07:11:36.509Z,4.13
2022-08-30T07:14:04.456Z,3.63
2022-08-30T07:16:32.506Z,2.72
2022-08-30T07:19:01.822Z,2.87
2022-08-30T07:21:37.888Z,3.05
2022-08-30T07:24:08.716Z,2.58
2022-08-30T07:26:49.736Z,2.70
2022-08-30T07:29:18.284Z,2.22
2022-08-30T07:31:45.508Z,2.10
2022-08-30T07:34:12.511Z,2.05
2022-08-30T07:36:40.035Z,1.88
2022-08-30T07:39:08.194Z,1.88
2022-08-30T07:41:38.668Z,1.80
2022-08-30T07:44:07.543Z,1.60
2022-08-30T07:46:35.107Z,1.52
2022-08-30T07:49:03.914Z,1.60
2022-08-30T07:51:32.449Z,1.67
2022-08-30T07:54:00.354Z,1.77
2022-08-30T07:56:27.822Z,1.60
2022-08-30T07:58:54.973Z,1.20
2022-08-30T08:01:23.192Z,1.40
2022-08-30T08:03:50.483Z,1.55
2022-08-30T08:06:20.440Z,1.50
2022-08-30T08:08:47.578Z,1.50
2022-08-30T08:11:20.607Z,1.40
2022-08-30T08:13:53.050Z,1.40
2022-08-30T08:16:23.898Z,1.30
2022-08-30T08:18:52.303Z,1.38
2022-08-30T08:21:20.135Z,1.30
2022-08-30T08:23:47.140Z,1.17
2022-08-30T08:26:14.328Z,1.60
2022-08-30T08:28:41.712Z,1.33
2022-08-30T08:31:21.673Z,1.50
2022-08-30T08:33:54.891Z,1.40
2022-08-30T08:36:22.097Z,1.63
2022-08-30T08:38:49.023Z,1.85
2022-08-30T08:41:54.003Z,1.50
2022-08-30T08:44:40.638Z,1.52
2022-08-30T08:47:25.430Z,1.73
2022-08-30T08:49:57.171Z,1.40
2022-08-30T08:52:52.789Z,1.10
2022-08-30T08:55:22.691Z,1.50
2022-08-30T08:57:52.284Z,1.60
2022-08-30T09:00:19.443Z,1.63
2022-08-30T09:03:04.323Z,1.42
2022-08-30T09:05:43.444Z,1.83
2022-08-30T09:08:16.084Z,1.38
2022-08-30T09:11:16.621Z,1.35
2022-08-30T09:13:43.764Z,1.30
2022-08-30T09:16:52.046Z,1.35
2022-08-30T09:19:40.100Z,1.80
2022-08-30T09:22:35.642Z,1.48
2022-08-30T09:25:05.847Z,1.40
2022-08-30T09:27:41.953Z,1.30
2022-08-30T09:30:29.285Z,1.35
2022-08-30T09:33:18.096Z,1.85
2022-08-30T09:35:49.529Z,1.35
2022-08-30T09:38:32.789Z,1.58
2022-08-30T09:41:23.057Z,1.23
2022-08-30T09:44:16.003Z,1.50
2022-08-30T09:46:58.317Z,1.95
2022-08-30T09:49:43.083Z,1.60
2022-08-30T09:52:17.688Z,1.30
2022-08-30T09:55:14.484Z,1.30
2022-08-30T09:58:16.631Z,1.17
2022-08-30T10:01:15.322Z,1.67
2022-08-30T10:04:11.163Z,1.38
2022-08-30T10:06:52.231Z,1.73
2022-08-30T10:09:58.281Z,1.70
2022-08-30T10:12:55.988Z,1.45
2022-08-30T10:15:41.246Z,1.40
2022-08-30T10:18:28.003Z,1.70
2022-08-30T10:21:01.374Z,1.63
2022-08-30T10:23:43.195Z,1.40
2022-08-30T10:26:34.330Z,1.63
2022-08-30T10:29:14.647Z,1.80
2022-08-30T10:31:55.354Z,1.70
2022-08-30T10:34:40.776Z,1.50
2022-08-30T10:37:17.056Z,1.40
2022-08-30T10:39:50.831Z,1.50
2022-08-30T10:42:25.791Z,1.38
2022-08-30T10:45:16.738Z,1.30
2022-08-30T10:48:21.948Z,1.40
2022-08-30T10:50:53.628Z,1.17
2022-08-30T10:53:33.762Z,1.58
2022-08-30T10:56:10.281Z,1.25
2022-08-30T10:58:42.244Z,1.50
2022-08-30T11:01:32.673Z,1.75
2022-08-30T11:04:38.024Z,1.60
2022-08-30T11:07:39.485Z,1.27
2022-08-30T11:10:29.513Z,1.60
2022-08-30T11:13:05.973Z,1.15
2022-08-30T11:15:52.461Z,1.33
2022-08-30T11:18:20.549Z,1.20
2022-08-30T11:20:55.113Z,1.40
2022-08-30T11:23:32.970Z,1.45
2022-08-30T11:26:16.995Z,1.63
2022-08-30T11:28:48.223Z,1.13
2022-08-30T11:31:20.879Z,1.40
2022-08-30T11:33:55.323Z,1.30
2022-08-30T11:36:46.142Z,1.30
2022-08-30T11:39:48.120Z,1.55
2022-08-30T11:42:29.811Z,1.45
2022-08-30T11:45:25.014Z,1.13
2022-08-30T11:48:05.892Z,1.55
2022-08-30T11:51:17.120Z,1.50
2022-08-30T11:54:02.171Z,1.25
2022-08-30T11:57:01.910Z,1.23
2022-08-30T12:00:06.704Z,1.27
2022-08-30T12:03:05.783Z,1.58
2022-08-30T12:05:39.684Z,1.27
2022-08-30T12:08:28.000Z,1.23
2022-08-30T12:11:02.163Z,1.33
2022-08-30T12:13:37.941Z,1.20
2022-08-30T12:16:11.564Z,1.25
2022-08-30T12:19:19.808Z,1.20
2022-08-30T12:22:01.697Z,1.02
2022-08-30T12:24:43.509Z,1.40
2022-08-30T12:27:37.600Z,1.70
2022-08-30T12:30:10.016Z,1.25
2022-08-30T12:32:47.280Z,1.42
2022-08-30T12:35:28.056Z,1.70
2022-08-30T12:38:13.855Z,1.45
2022-08-30T12:41:00.782Z,1.73
2022-08-30T12:43:40.252Z,1.00
2022-08-30T12:46:15.122Z,1.40
2022-08-30T12:48:44.054Z,1.30
2022-08-30T12:51:29.368Z,1.77
2022-08-30T12:54:08.383Z,1.57
2022-08-30T12:56:58.082Z,1.80
2022-08-30T13:00:01.737Z,1.77
2022-08-30T13:02:52.063Z,1.60
2022-08-30T13:05:44.983Z,1.73
2022-08-30T13:08:22.364Z,1.50
2022-08-30T13:11:10.972Z,1.83
2022-08-30T13:13:52.167Z,1.70
2022-08-30T13:16:22.587Z,1.60
2022-08-30T13:18:56.372Z,1.85
2022-08-30T13:21:34.247Z,1.93
2022-08-30T13:24:05.587Z,1.80
2022-08-30T13:26:37.670Z,1.70
2022-08-30T13:29:19.142Z,2.17
2022-08-30T13:31:46.302Z,2.33
2022-08-30T13:34:22.308Z,1.40
2022-08-30T13:36:58.399Z,2.20
2022-08-30T13:39:26.060Z,2.70
2022-08-30T13:41:53.496Z,2.55
2022-08-30T13:44:21.386Z,2.60
2022-08-30T13:46:55.329Z,2.67
2022-08-30T13:52:21.274Z,2.30
2022-08-30T13:54:57.918Z,1.90
2022-08-30T14:00:21.783Z,2.40
2022-08-30T14:02:54.460Z,2.30
2022-08-30T14:05:48.219Z,1.90
2022-08-30T14:11:11.731Z,1.98
2022-08-30T14:16:31.255Z,1.83
2022-08-30T14:19:00.603Z,1.83
2022-08-30T14:21:27.739Z,1.73
2022-08-30T14:23:56.982Z,1.55
2022-08-30T14:26:32.821Z,1.57
2022-08-30T14:29:01.684Z,1.75
2022-08-30T14:31:32.477Z,1.52
2022-08-30T14:34:01.092Z,1.73
2022-08-30T14:36:28.013Z,1.30
2022-08-30T14:38:54.983Z,1.50
2022-08-30T14:41:22.091Z,1.70
2022-08-30T14:43:51.648Z,1.60
2022-08-30T14:46:18.837Z,1.20
2022-08-30T14:48:46.931Z,1.60
2022-08-30T14:51:19.757Z,1.60
2022-08-30T14:53:50.554Z,1.50
2022-08-30T14:56:21.320Z,1.40
2022-08-30T14:58:53.881Z,1.30
2022-08-30T15:01:22.531Z,1.45
2022-08-30T15:03:49.490Z,1.53
2022-08-30T15:06:18.812Z,1.55
2022-08-30T15:08:48.441Z,1.50
2022-08-30T15:11:19.738Z,1.35
2022-08-30T15:13:47.392Z,1.55
2022-08-30T15:16:22.414Z,1.23
2022-08-30T15:18:50.132Z,1.40
2022-08-30T15:21:34.371Z,1.55
2022-08-30T15:24:05.220Z,1.70
2022-08-30T15:26:33.643Z,1.63
2022-08-30T15:29:00.557Z,1.30
2022-08-30T15:31:30.951Z,1.73
2022-08-30T15:33:59.189Z,1.77
2022-08-30T15:36:28.943Z,1.50
2022-08-30T15:38:57.010Z,1.77
2022-08-30T15:41:24.363Z,1.50
2022-08-30T15:43:52.637Z,1.40
2022-08-30T15:46:29.523Z,1.40
2022-08-30T15:49:01.612Z,1.60
2022-08-30T15:51:30.792Z,1.65
2022-08-30T15:54:12.879Z,1.30
2022-08-30T15:56:41.837Z,1.58
2022-08-30T15:59:09.968Z,1.42
2022-08-30T16:01:38.539Z,1.75
2022-08-30T16:04:06.109Z,1.65
2022-08-30T16:06:37.324Z,1.73
2022-08-30T16:09:09.223Z,1.75
2022-08-30T16:11:37.772Z,1.20
2022-08-30T16:14:05.903Z,1.52
2022-08-30T16:16:33.286Z,1.60
2022-08-30T16:19:02.087Z,1.73
2022-08-30T16:21:32.462Z,1.80
2022-08-30T16:24:02.669Z,1.42
2022-08-30T16:26:32.907Z,1.58
2022-08-30T16:29:00.843Z,1.60
2022-08-30T16:31:30.767Z,1.33
2022-08-30T16:34:03.713Z,1.38
2022-08-30T16:36:32.913Z,1.70
2022-08-30T16:39:00.327Z,1.30
2022-08-30T16:41:27.788Z,1.33
2022-08-30T16:43:55.412Z,1.30
2022-08-30T16:46:27.228Z,1.33
2022-08-30T16:48:57.912Z,1.60
2022-08-30T16:51:28.395Z,1.73
2022-08-30T16:53:57.802Z,1.40
2022-08-30T16:56:27.291Z,1.20
2022-08-30T16:59:01.811Z,1.35
2022-08-30T17:01:34.650Z,1.60
2022-08-30T17:04:03.268Z,1.40
2022-08-30T17:06:30.653Z,1.85
2022-08-30T17:08:59.194Z,1.60
2022-08-30T17:11:27.111Z,1.27
2022-08-30T17:13:54.831Z,1.58
2022-08-30T17:16:27.455Z,1.38
2022-08-30T17:19:00.638Z,1.48
2022-08-30T17:21:29.757Z,1.40
2022-08-30T17:24:02.427Z,1.50
2022-08-30T17:26:35.444Z,1.48
2022-08-30T17:29:04.068Z,1.52
2022-08-30T17:31:31.572Z,1.30
2022-08-30T17:34:04.072Z,1.20
2022-08-30T17:36:36.285Z,1.50
2022-08-30T17:39:10.849Z,1.38
2022-08-30T17:41:41.106Z,1.63
2022-08-30T17:44:13.247Z,1.58
2022-08-30T17:46:40.437Z,1.60
2022-08-30T17:49:10.506Z,1.60
2022-08-30T17:51:41.816Z,1.63
2022-08-30T17:54:11.871Z,1.83
2022-08-30T17:56:40.447Z,1.50
2022-08-30T17:59:10.092Z,1.50
2022-08-30T18:01:37.890Z,1.65
2022-08-30T18:04:06.374Z,1.63
2022-08-30T18:06:34.922Z,1.63
2022-08-30T18:09:04.896Z,1.40
2022-08-30T18:11:36.024Z,1.40
2022-08-30T18:14:04.448Z,1.70
2022-08-30T18:16:34.871Z,1.80
2022-08-30T18:19:04.203Z,1.70
2022-08-30T18:21:31.440Z,1.45
2022-08-30T18:23:58.576Z,1.70
2022-08-30T18:26:27.595Z,1.70
2022-08-30T18:28:56.048Z,1.52
2022-08-30T18:31:23.050Z,1.65
2022-08-30T18:33:50.335Z,1.85
2022-08-30T18:36:19.344Z,1.73
2022-08-30T18:38:46.280Z,1.70
2022-08-30T18:41:15.115Z,1.90
2022-08-30T18:43:44.782Z,1.55
2022-08-30T18:46:15.625Z,1.60
2022-08-30T18:48:46.061Z,1.50
2022-08-30T18:51:16.554Z,1.60
2022-08-30T18:53:44.128Z,1.55
2022-08-30T18:56:11.355Z,1.77
2022-08-30T18:58:40.314Z,2.03
2022-08-30T19:01:12.878Z,1.33
2022-08-30T19:03:40.717Z,1.80
2022-08-30T19:06:11.818Z,1.42
2022-08-30T19:08:40.162Z,1.42
2022-08-30T19:11:08.666Z,1.50
2022-08-30T19:13:36.871Z,1.27
2022-08-30T19:16:06.992Z,1.60
2022-08-30T19:18:34.425Z,1.50
2022-08-30T19:21:04.163Z,1.40
2022-08-30T19:23:34.437Z,1.50
2022-08-30T19:26:01.444Z,1.90
2022-08-30T19:28:28.952Z,1.92
2022-08-30T19:30:55.922Z,1.92
2022-08-30T19:33:22.904Z,1.48
2022-08-30T19:35:51.301Z,1.63
2022-08-30T19:38:19.025Z,1.40
2022-08-30T19:43:34.082Z,2.20
2022-08-30T19:46:01.087Z,1.80
2022-08-30T19:48:32.696Z,1.50
2022-08-30T19:51:07.881Z,1.80
2022-08-30T19:53:36.221Z,2.33
2022-08-30T19:56:03.503Z,2.22
2022-08-30T19:58:30.770Z,2.03
2022-08-30T20:01:11.653Z,2.05
2022-08-30T20:03:46.777Z,1.60
2022-08-30T20:06:16.180Z,2.25
2022-08-30T20:08:43.770Z,1.83
2022-08-30T20:11:16.028Z,1.85
2022-08-30T20:13:43.672Z,2.53
2022-08-30T20:16:14.096Z,1.97
2022-08-30T20:18:43.407Z,2.20
2022-08-30T20:21:14.270Z,2.50
2022-08-30T20:23:43.223Z,2.22
2022-08-30T20:26:11.634Z,2.35
2022-08-30T20:28:39.947Z,2.47
2022-08-30T20:31:08.117Z,2.33
2022-08-30T20:33:37.647Z,2.63
2022-08-30T20:36:07.743Z,2.20
2022-08-30T20:38:34.831Z,2.25
2022-08-30T20:41:03.251Z,2.17
2022-08-30T20:43:31.485Z,2.85
2022-08-30T20:45:58.559Z,2.70
2022-08-30T20:48:28.575Z,2.22
2022-08-30T20:50:55.645Z,2.60
2022-08-30T20:53:22.667Z,2.43
2022-08-30T20:55:49.723Z,2.58
2022-08-30T20:58:16.841Z,2.60
2022-08-30T21:00:45.999Z,2.72
2022-08-30T21:03:26.214Z,2.47
2022-08-30T21:05:55.118Z,2.60
2022-08-30T21:08:22.141Z,2.50
2022-08-30T21:10:49.099Z,2.50
2022-08-30T21:13:16.087Z,2.63
2022-08-30T21:15:46.306Z,2.60
2022-08-30T21:18:14.930Z,2.90
2022-08-30T21:20:42.542Z,2.63
2022-08-30T21:23:10.531Z,3.05
2022-08-30T21:25:42.566Z,2.80
2022-08-30T21:28:10.114Z,2.97
2022-08-30T21:30:37.665Z,2.30
2022-08-30T21:33:06.981Z,2.47
2022-08-30T21:35:53.293Z,2.92
2022-08-30T21:38:20.597Z,2.30
2022-08-30T21:40:48.747Z,2.67
2022-08-30T21:43:16.096Z,2.10
2022-08-30T21:45:44.664Z,2.42
2022-08-30T21:48:13.439Z,2.70
2022-08-30T21:50:42.571Z,2.50
2022-08-30T21:53:10.513Z,2.47
2022-08-30T21:55:37.629Z,2.10
2022-08-30T21:58:05.162Z,2.40
2022-08-30T22:00:33.467Z,2.05
2022-08-30T22:03:00.508Z,2.13
2022-08-30T22:05:27.596Z,2.08
2022-08-30T22:07:54.565Z,2.07
2022-08-30T22:10:21.615Z,2.10
2022-08-30T22:12:48.957Z,2.30
2022-08-30T22:15:16.513Z,2.22
2022-08-30T22:17:43.648Z,2.70
2022-08-30T22:20:11.834Z,2.27
2022-08-30T22:22:45.368Z,2.30
2022-08-30T22:25:12.451Z,2.55
2022-08-30T22:27:39.387Z,1.85
2022-08-30T22:30:07.186Z,2.10
2022-08-30T22:32:34.170Z,2.00
2022-08-30T22:35:01.107Z,1.98
2022-08-30T22:37:29.892Z,1.80
2022-08-30T22:39:56.824Z,2.22
2022-08-30T22:42:23.792Z,2.47
2022-08-30T22:44:52.064Z,2.37
2022-08-30T22:47:18.991Z,2.03
2022-08-30T22:49:45.948Z,1.90
2022-08-30T22:52:14.258Z,2.28
2022-08-30T22:54:41.171Z,2.33
2022-08-30T22:57:09.085Z,1.70
2022-08-30T22:59:36.037Z,1.92
2022-08-30T23:02:03.227Z,1.85
2022-08-30T23:04:30.484Z,1.83
2022-08-30T23:06:57.388Z,2.10
2022-08-30T23:09:24.339Z,2.43
2022-08-30T23:11:51.321Z,1.52
2022-08-30T23:14:18.285Z,2.15
2022-08-30T23:16:45.284Z,1.60
2022-08-30T23:19:12.377Z,2.03
2022-08-30T23:21:39.286Z,2.23
2022-08-30T23:24:25.013Z,2.30
2022-08-30T23:27:10.675Z,2.10
2022-08-30T23:29:57.083Z,1.95
2022-08-30T23:32:42.671Z,2.22
2022-08-30T23:35:31.245Z,1.90
2022-08-30T23:38:19.020Z,1.85
2022-08-30T23:41:04.594Z,1.92
2022-08-30T23:43:50.083Z,2.05
2022-08-30T23:46:35.771Z,1.92
2022-08-30T23:49:21.899Z,2.00
2022-08-30T23:52:08.223Z,1.90
2022-08-30T23:54:57.257Z,2.17
2022-08-30T23:57:44.690Z,2.05
